createdAt,value
2023-03-06T00:01:00.189Z,99.90
2023-03-06T00:03:28.173Z,99.90
2023-03-06T00:05:57.901Z,99.90
2023-03-06T00:08:27.266Z,99.90
2023-03-06T00:10:56.144Z,99.90
2023-03-06T00:13:24.411Z,99.90
2023-03-06T00:15:52.197Z,99.90
2023-03-06T00:18:19.445Z,99.90
2023-03-06T00:20:47.084Z,99.90
2023-03-06T00:23:14.640Z,99.90
2023-03-06T00:25:43.396Z,99.90
2023-03-06T00:28:12.202Z,99.90
2023-03-06T00:30:39.972Z,99.90
2023-03-06T00:33:07.370Z,99.90
2023-03-06T00:35:34.583Z,99.90
2023-03-06T00:38:01.899Z,99.90
2023-03-06T00:40:29.136Z,99.90
2023-03-06T00:42:56.328Z,99.90
2023-03-06T00:45:23.578Z,99.90
2023-03-06T00:47:50.824Z,99.90
2023-03-06T00:50:18.893Z,99.90
2023-03-06T00:52:46.231Z,99.90
2023-03-06T00:55:13.637Z,99.90
2023-03-06T00:57:41.702Z,99.90
2023-03-06T01:00:12.138Z,99.90
2023-03-06T01:02:39.445Z,99.90
2023-03-06T01:05:07.271Z,99.90
2023-03-06T01:07:36.533Z,99.90
2023-03-06T01:10:07.788Z,99.90
2023-03-06T01:12:35.684Z,99.90
2023-03-06T01:15:03.549Z,99.90
2023-03-06T01:17:33.116Z,99.90
2023-03-06T01:20:00.912Z,99.90
2023-03-06T01:22:28.502Z,99.90
2023-03-06T01:24:55.811Z,99.90
2023-03-06T01:27:23.099Z,99.90
2023-03-06T01:29:50.300Z,99.90
2023-03-06T01:32:18.025Z,99.90
2023-03-06T01:34:45.231Z,99.90
2023-03-06T01:37:12.648Z,99.90
2023-03-06T01:39:40.177Z,99.90
2023-03-06T01:42:07.671Z,99.90
2023-03-06T01:44:34.955Z,99.90
2023-03-06T01:47:02.365Z,99.90
2023-03-06T01:49:37.998Z,99.90
2023-03-06T01:52:21.558Z,99.90
2023-03-06T01:54:53.825Z,99.90
2023-03-06T01:57:27.316Z,99.90
2023-03-06T02:00:09.653Z,99.90
2023-03-06T02:02:49.442Z,99.90
2023-03-06T02:05:16.980Z,99.90
2023-03-06T02:07:45.875Z,99.90
2023-03-06T02:10:16.683Z,99.90
2023-03-06T02:12:46.370Z,99.90
2023-03-06T02:15:16.682Z,99.90
2023-03-06T02:17:46.167Z,99.90
2023-03-06T02:20:39.163Z,99.90
2023-03-06T02:23:18.274Z,99.90
2023-03-06T02:25:50.963Z,99.90
2023-03-06T02:28:21.724Z,99.90
2023-03-06T02:30:52.563Z,99.90
2023-03-06T02:33:23.947Z,99.90
2023-03-06T02:35:57.552Z,99.90
2023-03-06T02:38:28.362Z,99.90
2023-03-06T02:40:58.014Z,99.90
2023-03-06T02:43:31.520Z,99.90
2023-03-06T02:45:58.848Z,99.90
2023-03-06T02:48:26.196Z,99.90
2023-03-06T02:50:53.892Z,99.90
2023-03-06T02:53:21.582Z,99.90
2023-03-06T02:55:49.381Z,99.90
2023-03-06T02:58:19.597Z,99.90
2023-03-06T03:00:48.338Z,99.90
2023-03-06T03:03:16.540Z,99.90
2023-03-06T03:05:43.777Z,99.90
2023-03-06T03:08:21.380Z,99.90
2023-03-06T03:10:51.701Z,99.90
2023-03-06T03:13:19.552Z,99.90
2023-03-06T03:16:02.369Z,99.90
2023-03-06T03:18:29.968Z,99.90
2023-03-06T03:20:57.631Z,99.90
2023-03-06T03:23:26.215Z,99.90
2023-03-06T03:26:10.174Z,99.90
2023-03-06T03:28:40.121Z,99.90
2023-03-06T03:31:10.083Z,99.90
2023-03-06T03:33:37.445Z,99.90
2023-03-06T03:36:06.595Z,99.90
2023-03-06T03:38:35.781Z,99.90
2023-03-06T03:41:04.218Z,99.90
2023-03-06T03:43:32.012Z,99.90
2023-03-06T03:46:00.374Z,99.90
2023-03-06T03:48:28.829Z,99.90
2023-03-06T03:51:05.345Z,99.90
2023-03-06T03:53:34.087Z,99.90
2023-03-06T03:56:02.271Z,99.90
2023-03-06T03:58:30.722Z,99.90
2023-03-06T04:01:00.688Z,99.90
2023-03-06T04:03:28.552Z,99.90
2023-03-06T04:05:57.820Z,99.90
2023-03-06T04:08:26.863Z,99.90
2023-03-06T04:10:54.929Z,99.90
2023-03-06T04:13:23.905Z,99.90
2023-03-06T04:15:53.956Z,99.90
2023-03-06T04:18:23.640Z,99.90
2023-03-06T04:20:51.983Z,99.90
2023-03-06T04:23:19.834Z,99.90
2023-03-06T04:25:47.335Z,99.90
2023-03-06T04:28:14.752Z,99.90
2023-03-06T04:30:42.756Z,99.90
2023-03-06T04:33:10.007Z,99.90
2023-03-06T04:35:37.499Z,99.90
2023-03-06T04:38:09.816Z,99.90
2023-03-06T04:40:37.623Z,99.90
2023-03-06T04:43:05.794Z,99.90
2023-03-06T04:45:33.892Z,99.90
2023-03-06T04:48:02.520Z,99.90
2023-03-06T04:50:32.384Z,99.90
2023-03-06T04:53:01.314Z,99.90
2023-03-06T04:55:29.362Z,99.90
2023-03-06T04:57:57.829Z,99.90
2023-03-06T05:00:33.066Z,99.90
2023-03-06T05:03:01.517Z,99.90
2023-03-06T05:05:29.174Z,99.90
2023-03-06T05:07:56.388Z,99.90
2023-03-06T05:10:23.857Z,99.90
2023-03-06T05:12:51.231Z,99.90
2023-03-06T05:15:18.943Z,99.90
2023-03-06T05:17:47.820Z,99.90
2023-03-06T05:20:15.946Z,99.90
2023-03-06T05:22:44.326Z,99.90
2023-03-06T05:25:11.742Z,99.90
2023-03-06T05:27:39.337Z,99.90
2023-03-06T05:30:08.321Z,99.90
2023-03-06T05:32:36.444Z,99.90
2023-03-06T05:35:04.611Z,99.90
2023-03-06T05:37:32.097Z,99.90
2023-03-06T05:39:59.821Z,99.90
2023-03-06T05:42:28.784Z,99.90
2023-03-06T05:44:55.959Z,99.90
2023-03-06T05:47:23.177Z,99.90
2023-03-06T05:49:50.351Z,99.90
2023-03-06T05:52:17.930Z,99.90
2023-03-06T05:54:49.192Z,99.90
2023-03-06T05:57:16.518Z,99.90
2023-03-06T05:59:43.688Z,99.90
2023-03-06T06:02:11.271Z,99.90
2023-03-06T06:04:38.494Z,99.90
2023-03-06T06:07:06.148Z,99.90
2023-03-06T06:09:33.439Z,99.90
2023-03-06T06:12:03.546Z,99.90
2023-03-06T06:14:34.901Z,99.90
2023-03-06T06:17:02.287Z,99.90
2023-03-06T06:19:31.217Z,99.90
2023-03-06T06:21:58.918Z,99.90
2023-03-06T06:24:26.792Z,99.90
2023-03-06T06:26:55.888Z,99.90
2023-03-06T06:29:25.461Z,99.90
2023-03-06T06:31:54.116Z,99.90
2023-03-06T06:34:22.602Z,99.90
2023-03-06T06:36:53.126Z,99.90
2023-03-06T06:39:21.918Z,99.90
2023-03-06T06:42:05.602Z,99.90
2023-03-06T06:44:38.156Z,99.90
2023-03-06T06:47:23.956Z,99.90
2023-03-06T06:49:53.892Z,99.90
2023-03-06T06:52:22.194Z,99.90
2023-03-06T06:54:49.391Z,99.90
2023-03-06T06:57:16.710Z,99.90
2023-03-06T06:59:44.026Z,99.90
2023-03-06T07:02:13.451Z,99.90
2023-03-06T07:04:52.327Z,99.90
2023-03-06T07:07:25.503Z,99.90
2023-03-06T07:09:54.712Z,99.90
2023-03-06T07:12:21.891Z,99.90
2023-03-06T07:14:49.056Z,99.90
2023-03-06T07:17:16.923Z,99.90
2023-03-06T07:19:44.439Z,99.90
2023-03-06T07:22:11.605Z,99.90
2023-03-06T07:24:39.243Z,99.90
2023-03-06T07:27:06.912Z,99.90
2023-03-06T07:29:34.419Z,99.90
2023-03-06T07:32:01.715Z,99.90
2023-03-06T07:34:29.966Z,99.90
2023-03-06T07:36:57.244Z,99.90
2023-03-06T07:39:25.487Z,99.90
2023-03-06T07:41:53.364Z,99.90
2023-03-06T07:44:21.220Z,99.90
2023-03-06T07:46:48.499Z,99.90
2023-03-06T07:49:16.523Z,99.90
2023-03-06T07:51:43.881Z,99.90
2023-03-06T07:54:11.051Z,99.90
2023-03-06T07:56:38.216Z,99.90
2023-03-06T07:59:05.378Z,99.90
2023-03-06T08:01:32.985Z,99.90
2023-03-06T08:04:02.032Z,99.90
2023-03-06T08:06:29.731Z,99.90
2023-03-06T08:08:57.305Z,99.90
2023-03-06T08:11:27.139Z,99.90
2023-03-06T08:13:54.816Z,99.90
2023-03-06T08:16:24.823Z,99.90
2023-03-06T08:18:52.087Z,99.90
2023-03-06T08:21:22.071Z,99.90
2023-03-06T08:23:49.577Z,99.90
2023-03-06T08:26:22.909Z,99.90
2023-03-06T08:28:52.819Z,99.90
2023-03-06T08:31:33.215Z,99.90
2023-03-06T08:34:03.464Z,99.90
2023-03-06T08:36:30.792Z,99.90
2023-03-06T08:38:58.983Z,99.90
2023-03-06T08:41:26.797Z,99.90
2023-03-06T08:43:54.115Z,99.90
2023-03-06T08:46:23.488Z,99.90
2023-03-06T08:48:51.333Z,99.90
2023-03-06T08:51:19.557Z,99.90
2023-03-06T08:53:46.973Z,99.90
2023-03-06T08:56:32.137Z,99.90
2023-03-06T08:59:02.221Z,99.90
2023-03-06T09:01:32.989Z,99.90
2023-03-06T09:04:02.477Z,99.90
2023-03-06T09:06:31.780Z,99.90
2023-03-06T09:08:59.408Z,99.90
2023-03-06T09:11:27.877Z,99.90
2023-03-06T09:13:55.945Z,99.90
2023-03-06T09:16:24.193Z,99.90
2023-03-06T09:18:52.888Z,99.90
2023-03-06T09:21:22.171Z,99.90
2023-03-06T09:23:49.730Z,99.90
2023-03-06T09:26:17.040Z,99.90
2023-03-06T09:28:44.406Z,99.90
2023-03-06T09:31:14.364Z,99.90
2023-03-06T09:33:41.849Z,99.90
2023-03-06T09:36:14.401Z,99.90
2023-03-06T09:38:41.562Z,99.90
2023-03-06T09:41:26.352Z,99.90
2023-03-06T09:44:01.377Z,99.90
2023-03-06T09:46:47.579Z,99.90
2023-03-06T09:49:33.452Z,99.90
2023-03-06T09:52:15.008Z,99.90
2023-03-06T09:55:08.592Z,99.90
2023-03-06T09:57:57.734Z,99.90
2023-03-06T10:00:34.862Z,99.90
2023-03-06T10:03:17.722Z,99.90
2023-03-06T10:05:54.987Z,99.90
2023-03-06T10:08:44.051Z,99.90
2023-03-06T10:11:14.484Z,99.90
2023-03-06T10:16:33.014Z,99.90
2023-03-06T10:19:03.910Z,97.20
2023-03-06T10:21:43.727Z,96.30
2023-03-06T10:24:29.112Z,95.80
2023-03-06T10:27:29.755Z,92.90
2023-03-06T10:30:18.973Z,95.80
2023-03-06T10:32:52.314Z,93.80
2023-03-06T10:35:25.525Z,90.50
2023-03-06T10:38:17.614Z,89.30
2023-03-06T10:41:10.338Z,83.90
2023-03-06T10:43:42.841Z,80.30
2023-03-06T10:46:26.235Z,81.90
2023-03-06T10:49:06.002Z,75.70
2023-03-06T10:51:34.172Z,80.00
2023-03-06T10:54:19.223Z,74.00
2023-03-06T10:56:47.309Z,76.80
2023-03-06T10:59:25.158Z,78.20
2023-03-06T11:01:57.864Z,79.20
2023-03-06T11:04:29.541Z,83.10
2023-03-06T11:07:18.383Z,75.90
2023-03-06T11:09:58.896Z,71.90
2023-03-06T11:12:33.048Z,66.60
2023-03-06T11:15:18.413Z,64.80
2023-03-06T11:17:59.667Z,68.70
2023-03-06T11:20:51.848Z,65.20
2023-03-06T11:23:42.638Z,65.10
2023-03-06T11:26:28.692Z,64.00
2023-03-06T11:29:24.236Z,66.50
2023-03-06T11:32:27.509Z,66.50
2023-03-06T11:35:05.525Z,70.70
2023-03-06T11:37:32.667Z,73.00
2023-03-06T11:40:25.552Z,70.20
2023-03-06T11:43:17.003Z,73.10
2023-03-06T11:45:46.821Z,67.50
2023-03-06T11:48:13.954Z,65.70
2023-03-06T11:50:43.948Z,66.10
2023-03-06T11:53:17.278Z,64.30
2023-03-06T11:56:07.290Z,63.80
2023-03-06T11:59:11.815Z,58.30
2023-03-06T12:02:14.607Z,57.10
2023-03-06T12:04:52.534Z,62.70
2023-03-06T12:07:31.244Z,68.30
2023-03-06T12:10:20.590Z,68.60
2023-03-06T12:13:12.736Z,69.40
2023-03-06T12:16:05.009Z,70.40
2023-03-06T12:18:45.373Z,71.60
2023-03-06T12:21:40.968Z,73.90
2023-03-06T12:24:45.805Z,73.20
2023-03-06T12:27:46.019Z,74.00
2023-03-06T12:30:41.681Z,78.50
2023-03-06T12:33:33.817Z,79.40
2023-03-06T12:36:32.954Z,79.10
2023-03-06T12:39:24.021Z,76.00
2023-03-06T12:42:22.703Z,75.80
2023-03-06T12:44:58.929Z,76.60
2023-03-06T12:47:28.828Z,74.80
2023-03-06T12:50:13.858Z,75.50
2023-03-06T12:52:41.889Z,68.00
2023-03-06T12:55:16.614Z,70.10
2023-03-06T12:57:44.154Z,68.70
2023-03-06T13:00:52.659Z,62.20
2023-03-06T13:03:28.019Z,64.30
2023-03-06T13:06:25.162Z,62.40
2023-03-06T13:09:08.308Z,64.10
2023-03-06T13:12:20.561Z,64.10
2023-03-06T13:14:54.807Z,63.50
2023-03-06T13:17:35.738Z,63.20
2023-03-06T13:20:16.401Z,61.30
2023-03-06T13:22:47.898Z,62.00
2023-03-06T13:25:21.543Z,63.40
2023-03-06T13:27:54.574Z,62.50
2023-03-06T13:30:43.691Z,65.50
2023-03-06T13:33:32.369Z,68.80
2023-03-06T13:36:19.076Z,69.40
2023-03-06T13:38:49.257Z,70.50
2023-03-06T13:41:22.331Z,68.40
2023-03-06T13:43:55.366Z,66.30
2023-03-06T13:46:28.088Z,65.60
2023-03-06T13:49:10.536Z,65.30
2023-03-06T13:51:43.579Z,63.00
2023-03-06T13:54:23.295Z,63.10
2023-03-06T13:57:10.062Z,61.90
2023-03-06T13:59:54.439Z,64.50
2023-03-06T14:03:04.305Z,64.50
2023-03-06T14:05:49.301Z,63.30
2023-03-06T14:08:20.446Z,68.20
2023-03-06T14:10:59.288Z,68.90
2023-03-06T14:13:38.400Z,64.80
2023-03-06T14:16:21.567Z,65.80
2023-03-06T14:18:51.779Z,63.10
2023-03-06T14:21:30.607Z,65.90
2023-03-06T14:24:00.859Z,67.70
2023-03-06T14:26:32.513Z,72.20
2023-03-06T14:29:02.021Z,72.70
2023-03-06T14:31:33.558Z,74.30
2023-03-06T14:34:06.736Z,74.00
2023-03-06T14:36:35.438Z,76.40
2023-03-06T14:39:19.323Z,77.00
2023-03-06T14:41:46.758Z,78.40
2023-03-06T14:44:22.837Z,78.40
2023-03-06T14:46:55.522Z,77.40
2023-03-06T14:49:25.062Z,76.40
2023-03-06T14:52:00.456Z,75.90
2023-03-06T14:54:30.948Z,75.90
2023-03-06T14:57:14.119Z,76.90
2023-03-06T14:59:54.200Z,77.30
2023-03-06T15:02:25.604Z,75.10
2023-03-06T15:05:13.313Z,74.30
2023-03-06T15:07:42.784Z,74.50
2023-03-06T15:10:31.259Z,73.60
2023-03-06T15:13:22.553Z,73.40
2023-03-06T15:16:19.000Z,73.30
2023-03-06T15:19:17.096Z,74.80
2023-03-06T15:21:48.281Z,75.90
2023-03-06T15:24:35.773Z,74.80
2023-03-06T15:27:07.505Z,73.90
2023-03-06T15:29:38.203Z,74.10
2023-03-06T15:32:34.443Z,72.60
2023-03-06T15:35:23.833Z,73.80
2023-03-06T15:37:51.913Z,74.10
2023-03-06T15:40:21.416Z,74.70
2023-03-06T15:42:51.807Z,75.00
2023-03-06T15:45:21.752Z,75.60
2023-03-06T15:47:51.512Z,77.10
2023-03-06T15:50:24.596Z,77.70
2023-03-06T15:52:52.716Z,80.00
2023-03-06T15:55:25.987Z,79.60
2023-03-06T15:57:56.486Z,79.90
2023-03-06T16:00:33.962Z,79.80
2023-03-06T16:03:02.113Z,80.70
2023-03-06T16:05:30.173Z,82.40
2023-03-06T16:07:57.755Z,83.50
2023-03-06T16:10:28.354Z,83.70
2023-03-06T16:13:02.402Z,84.50
2023-03-06T16:15:32.980Z,85.00
2023-03-06T16:18:00.352Z,85.80
2023-03-06T16:20:29.288Z,86.00
2023-03-06T16:22:56.537Z,86.90
2023-03-06T16:25:26.320Z,87.50
2023-03-06T16:27:59.037Z,88.10
2023-03-06T16:30:30.231Z,88.60
2023-03-06T16:32:58.098Z,89.90
2023-03-06T16:35:25.699Z,90.50
2023-03-06T16:37:53.464Z,91.00
2023-03-06T16:40:37.264Z,91.50
2023-03-06T16:43:05.371Z,92.10
2023-03-06T16:45:37.223Z,92.70
2023-03-06T16:48:05.316Z,93.50
2023-03-06T16:50:40.226Z,94.00
2023-03-06T16:53:08.137Z,94.80
2023-03-06T16:55:35.441Z,95.30
2023-03-06T16:58:03.299Z,95.80
2023-03-06T17:00:33.250Z,96.00
2023-03-06T17:03:02.264Z,96.40
2023-03-06T17:05:33.062Z,97.00
2023-03-06T17:08:00.818Z,97.60
2023-03-06T17:10:28.531Z,98.00
2023-03-06T17:12:57.298Z,98.70
2023-03-06T17:15:25.549Z,99.50
2023-03-06T17:17:53.252Z,99.90
2023-03-06T17:20:20.763Z,99.90
2023-03-06T17:22:48.624Z,99.90
2023-03-06T17:25:16.725Z,99.90
2023-03-06T17:27:44.046Z,99.90
2023-03-06T17:30:16.606Z,99.90
2023-03-06T17:32:43.962Z,99.90
2023-03-06T17:35:11.498Z,99.90
2023-03-06T17:37:38.845Z,99.90
2023-03-06T17:40:08.890Z,99.90
2023-03-06T17:42:36.177Z,99.90
2023-03-06T17:45:05.032Z,99.90
2023-03-06T17:47:32.441Z,99.90
2023-03-06T17:49:59.740Z,99.90
2023-03-06T17:52:27.206Z,99.90
2023-03-06T17:54:57.958Z,99.90
2023-03-06T17:57:25.558Z,99.90
2023-03-06T17:59:53.041Z,99.90
2023-03-06T18:02:20.366Z,99.90
2023-03-06T18:04:47.637Z,99.90
2023-03-06T18:07:15.546Z,99.90
2023-03-06T18:09:43.118Z,99.90
2023-03-06T18:12:10.697Z,99.90
2023-03-06T18:14:38.490Z,99.90
2023-03-06T18:17:05.908Z,99.90
2023-03-06T18:19:33.220Z,99.90
2023-03-06T18:22:00.484Z,99.90
2023-03-06T18:24:27.750Z,99.90
2023-03-06T18:26:55.017Z,99.90
2023-03-06T18:29:22.311Z,99.90
2023-03-06T18:31:50.353Z,99.90
2023-03-06T18:34:18.258Z,99.90
2023-03-06T18:36:47.236Z,99.90
2023-03-06T18:39:15.677Z,99.90
2023-03-06T18:41:43.087Z,99.90
2023-03-06T18:44:16.273Z,99.90
2023-03-06T18:46:44.598Z,99.90
2023-03-06T18:49:13.499Z,99.90
2023-03-06T18:51:40.883Z,99.90
2023-03-06T18:54:08.319Z,99.90
2023-03-06T18:56:35.679Z,99.90
2023-03-06T18:59:05.224Z,99.90
2023-03-06T19:01:33.057Z,99.90
2023-03-06T19:04:02.923Z,99.90
2023-03-06T19:06:30.972Z,99.90
2023-03-06T19:08:58.705Z,99.90
2023-03-06T19:11:27.066Z,99.90
2023-03-06T19:13:54.801Z,99.90
2023-03-06T19:16:24.941Z,99.90
2023-03-06T19:18:52.644Z,99.90
2023-03-06T19:21:21.455Z,99.90
2023-03-06T19:23:49.428Z,99.90
2023-03-06T19:26:18.899Z,99.90
2023-03-06T19:28:47.100Z,99.90
2023-03-06T19:31:19.478Z,99.90
2023-03-06T19:33:50.352Z,99.90
2023-03-06T19:36:18.667Z,99.90
2023-03-06T19:38:52.362Z,99.90
2023-03-06T19:41:20.234Z,99.90
2023-03-06T19:43:52.073Z,99.90
2023-03-06T19:46:21.597Z,99.90
2023-03-06T19:48:53.496Z,99.90
2023-03-06T19:51:20.764Z,99.90
2023-03-06T19:53:47.984Z,99.90
2023-03-06T19:56:19.588Z,99.90
2023-03-06T19:58:46.903Z,99.90
2023-03-06T20:01:17.813Z,99.90
2023-03-06T20:03:45.074Z,99.90
2023-03-06T20:06:15.513Z,99.90
2023-03-06T20:08:43.108Z,99.90
2023-03-06T20:11:25.172Z,99.90
2023-03-06T20:13:53.060Z,99.90
2023-03-06T20:16:20.411Z,99.90
2023-03-06T20:18:48.308Z,99.90
2023-03-06T20:21:15.771Z,99.90
2023-03-06T20:23:43.321Z,99.90
2023-03-06T20:26:12.377Z,99.90
2023-03-06T20:28:41.356Z,99.90
2023-03-06T20:31:16.275Z,99.90
2023-03-06T20:33:45.607Z,99.90
2023-03-06T20:36:15.843Z,99.90
2023-03-06T20:38:43.255Z,99.90
2023-03-06T20:41:20.408Z,99.90
2023-03-06T20:43:48.192Z,99.90
2023-03-06T20:46:16.725Z,99.90
2023-03-06T20:48:46.802Z,99.90
2023-03-06T20:51:17.941Z,99.90
2023-03-06T20:53:46.997Z,99.90
2023-03-06T20:56:18.565Z,99.90
2023-03-06T20:58:45.981Z,99.90
2023-03-06T21:01:21.392Z,99.90
2023-03-06T21:03:49.189Z,99.90
2023-03-06T21:06:17.128Z,99.90
2023-03-06T21:08:44.470Z,99.90
2023-03-06T21:11:11.777Z,99.90
2023-03-06T21:13:39.030Z,99.90
2023-03-06T21:16:09.701Z,99.90
2023-03-06T21:18:37.101Z,99.90
2023-03-06T21:21:10.039Z,99.90
2023-03-06T21:23:37.791Z,99.90
2023-03-06T21:26:07.070Z,99.90
2023-03-06T21:28:34.232Z,99.90
2023-03-06T21:31:02.329Z,99.90
2023-03-06T21:33:29.601Z,99.90
2023-03-06T21:35:56.905Z,99.90
2023-03-06T21:38:24.184Z,99.90
2023-03-06T21:40:51.654Z,99.90
2023-03-06T21:43:19.439Z,99.90
2023-03-06T21:45:48.005Z,99.90
2023-03-06T21:48:15.957Z,99.90
2023-03-06T21:50:43.668Z,99.90
2023-03-06T21:53:11.979Z,99.90
2023-03-06T21:55:40.685Z,99.90
2023-03-06T21:58:08.124Z,99.90
2023-03-06T22:00:38.070Z,99.90
2023-03-06T22:03:06.538Z,99.90
2023-03-06T22:05:33.718Z,99.90
2023-03-06T22:08:01.423Z,99.90
2023-03-06T22:10:28.617Z,99.90
2023-03-06T22:12:55.780Z,99.90
2023-03-06T22:15:22.919Z,99.90
2023-03-06T22:17:50.087Z,99.90
2023-03-06T22:20:17.467Z,99.90
2023-03-06T22:22:44.732Z,99.90
2023-03-06T22:25:12.527Z,99.90
2023-03-06T22:27:39.948Z,99.90
2023-03-06T22:30:07.915Z,99.90
2023-03-06T22:32:35.157Z,99.90
2023-03-06T22:35:02.778Z,99.90
2023-03-06T22:37:31.605Z,99.90
2023-03-06T22:39:58.776Z,99.90
2023-03-06T22:42:26.013Z,99.90
2023-03-06T22:44:53.188Z,99.90
2023-03-06T22:47:20.353Z,99.90
2023-03-06T22:49:47.555Z,99.90
2023-03-06T22:52:15.342Z,99.90
2023-03-06T22:54:42.537Z,99.90
2023-03-06T22:57:09.723Z,99.90
2023-03-06T22:59:36.994Z,99.90
2023-03-06T23:02:04.455Z,99.90
2023-03-06T23:04:31.663Z,99.90
2023-03-06T23:06:59.039Z,99.90
2023-03-06T23:09:26.737Z,99.90
2023-03-06T23:12:12.502Z,99.90
2023-03-06T23:14:59.293Z,99.90
2023-03-06T23:17:44.899Z,99.90
2023-03-06T23:20:31.496Z,99.90
2023-03-06T23:23:44.185Z,99.90
2023-03-06T23:26:14.583Z,99.90
2023-03-06T23:28:42.531Z,99.90
2023-03-06T23:31:12.427Z,99.90
2023-03-06T23:33:39.646Z,99.90
2023-03-06T23:36:09.688Z,99.90
2023-03-06T23:38:38.225Z,99.90
2023-03-06T23:41:07.630Z,99.90
2023-03-06T23:43:35.392Z,99.90
2023-03-06T23:46:03.438Z,99.90
2023-03-06T23:48:30.699Z,99.90
2023-03-06T23:50:58.143Z,99.90
2023-03-06T23:53:25.718Z,99.90
2023-03-06T23:55:53.216Z,99.90
2023-03-06T23:58:20.784Z,99.90
